Chipita Park, Colorado
Current Conditions -  °F | °C
As of 8:58 AM on Sunday 25 Jan 2015 (Local Time) from KAFF Reporting Station
Clear Clear  
Wind Chill: 24°   Ceiling: Unl
Heat Index: 32°   Visibility: 10mi
Dew Point: 24°   Wind: 9mph
Humidity: 73%   Direction: 150°SSE
Pressure: 30.19"   Gusts: NA
Location:  38.9233°N, 104.975°W
Report Text: KAFF 251558Z AUTO 15008KT 10SM CLR 00/M05 A3019 RMK AO2 SLP246 T10021046
Loading
Personal Weather Stations






























Interactive Weather Map New forecast layout! Learn more

10-Day Weather Forecast

Advertisements
Track Severe Weather on mobile